Time;durP1;ratioP1;P1;durP2;ratioP2;P2;SDS_P1;SDS_P2;PMS_P1;PMS_P2;Temp;Humidity;BMP_temperature;BMP_pressure;BME280_temperature;BME280_humidity;BME280_pressure;Samples;Min_cycle;Max_cycle;Signal;HPM_P1;HPM_P2
2023/04/19 00:01:08;;;;;;;13.17;10.93;;;;;;;;;;6218177;22;20191;-73
2023/04/19 00:04:13;;;;;;;14.70;11.50;;;;;;;;;;6256167;23;20151;-74
2023/04/19 00:07:19;;;;;;;16.43;12.57;;;;;;;;;;6237477;23;20156;-73
2023/04/19 00:10:23;;;;;;;16.27;12.20;;;;;;;;;;6256112;23;20148;-72
2023/04/19 00:13:27;;;;;;;15.00;12.53;;;;;;;;;;6258459;23;20151;-73
2023/04/19 00:16:31;;;;;;;17.20;12.23;;;;;;;;;;6258391;23;20155;-73
2023/04/19 00:19:37;;;;;;;16.57;13.20;;;;;;;;;;6239663;23;20152;-73
2023/04/19 00:22:41;;;;;;;14.77;11.73;;;;;;;;;;6230747;23;20187;-73
2023/04/19 00:25:47;;;;;;;17.83;12.57;;;;;;;;;;6239473;23;20497;-72
2023/04/19 00:28:51;;;;;;;17.70;12.93;;;;;;;;;;6257643;23;20179;-72
2023/04/19 00:31:55;;;;;;;15.47;12.20;;;;;;;;;;6233777;23;20199;-73
2023/04/19 00:35:01;;;;;;;14.77;12.87;;;;;;;;;;6257906;23;20600;-73
2023/04/19 00:38:05;;;;;;;15.63;12.87;;;;;;;;;;6258142;23;20159;-73
2023/04/19 00:41:10;;;;;;;17.67;13.03;;;;;;;;;;6236907;22;20191;-73
2023/04/19 00:44:14;;;;;;;14.97;12.37;;;;;;;;;;6222345;23;20156;-72
2023/04/19 00:47:19;;;;;;;15.30;12.70;;;;;;;;;;6258042;23;20151;-73
2023/04/19 00:50:23;;;;;;;17.53;13.37;;;;;;;;;;6222165;23;20147;-73
2023/04/19 00:53:27;;;;;;;18.73;13.60;;;;;;;;;;6229318;23;20175;-73
2023/04/19 00:56:33;;;;;;;16.83;13.27;;;;;;;;;;6229374;23;20167;-73
2023/04/19 00:59:37;;;;;;;16.73;12.70;;;;;;;;;;6239475;23;20593;-73
2023/04/19 01:02:41;;;;;;;16.13;12.90;;;;;;;;;;6248100;22;20187;-73
2023/04/19 01:05:47;;;;;;;15.80;13.30;;;;;;;;;;6257602;23;20159;-73
2023/04/19 01:08:51;;;;;;;18.40;13.73;;;;;;;;;;6239202;23;20179;-72
2023/04/19 01:11:55;;;;;;;19.30;14.17;;;;;;;;;;6233574;23;20218;-73
2023/04/19 01:14:59;;;;;;;16.27;13.40;;;;;;;;;;6239394;23;20465;-73
2023/04/19 01:18:03;;;;;;;16.57;13.40;;;;;;;;;;6239090;23;20156;-73
2023/04/19 01:21:08;;;;;;;18.57;14.50;;;;;;;;;;6236677;22;20187;-72
2023/04/19 01:24:12;;;;;;;20.57;14.33;;;;;;;;;;6238824;23;20152;-73
2023/04/19 01:27:16;;;;;;;16.47;12.70;;;;;;;;;;6235324;23;20179;-73
2023/04/19 01:30:20;;;;;;;20.50;14.70;;;;;;;;;;6239124;23;20183;-73
2023/04/19 01:33:24;;;;;;;17.87;13.90;;;;;;;;;;6239086;23;20159;-73
2023/04/19 01:36:28;;;;;;;16.93;13.73;;;;;;;;;;6221555;23;20152;-72
2023/04/19 01:39:33;;;;;;;18.77;13.73;;;;;;;;;;6257413;23;20152;-73
2023/04/19 01:42:38;;;;;;;20.07;14.30;;;;;;;;;;6213479;23;20195;-73
2023/04/19 01:45:42;;;;;;;17.73;13.90;;;;;;;;;;6228665;23;20171;-73
2023/04/19 01:48:46;;;;;;;21.30;13.37;;;;;;;;;;6238776;23;20485;-73
2023/04/19 01:51:50;;;;;;;17.13;13.50;;;;;;;;;;6216592;23;20195;-72
2023/04/19 01:54:54;;;;;;;17.77;13.47;;;;;;;;;;6238909;23;20156;-73
2023/04/19 01:57:59;;;;;;;17.37;14.00;;;;;;;;;;6257463;23;20155;-73
2023/04/19 02:01:03;;;;;;;16.40;13.10;;;;;;;;;;6236744;22;20186;-73
2023/04/19 02:04:08;;;;;;;17.17;13.80;;;;;;;;;;6239191;23;20155;-73
2023/04/19 02:07:12;;;;;;;15.27;12.80;;;;;;;;;;6257717;23;20151;-72
2023/04/19 02:10:16;;;;;;;17.23;13.67;;;;;;;;;;6238467;23;20179;-73
2023/04/19 02:13:21;;;;;;;17.13;13.23;;;;;;;;;;6238793;23;20160;-73
2023/04/19 02:16:24;;;;;;;15.07;12.57;;;;;;;;;;6256931;23;20458;-73
2023/04/19 02:19:29;;;;;;;16.90;12.87;;;;;;;;;;6238508;23;20151;-73
2023/04/19 02:22:33;;;;;;;16.97;13.43;;;;;;;;;;6248689;22;20191;-73
2023/04/19 02:25:37;;;;;;;15.90;13.43;;;;;;;;;;6228455;23;20168;-73
2023/04/19 02:28:41;;;;;;;21.60;13.50;;;;;;;;;;6246613;23;20477;-73
2023/04/19 02:31:45;;;;;;;19.37;13.27;;;;;;;;;;6233606;23;20195;-73
2023/04/19 02:34:49;;;;;;;19.57;13.87;;;;;;;;;;6237991;23;20155;-73
2023/04/19 02:37:53;;;;;;;16.37;12.83;;;;;;;;;;6238562;23;20601;-72
2023/04/19 02:40:59;;;;;;;17.20;13.27;;;;;;;;;;6236614;22;20184;-73
2023/04/19 02:44:04;;;;;;;18.43;13.97;;;;;;;;;;6228282;23;20171;-73
2023/04/19 02:47:08;;;;;;;16.10;13.40;;;;;;;;;;6228489;23;20171;-73
2023/04/19 02:50:14;;;;;;;21.13;14.63;;;;;;;;;;6228371;23;20191;-73
2023/04/19 02:53:23;;;;;;;19.60;13.27;;;;;;;;;;6222285;23;20156;-73
2023/04/19 02:56:28;;;;;;;16.63;13.40;;;;;;;;;;6221039;23;20156;-73
2023/04/19 02:59:32;;;;;;;17.53;13.83;;;;;;;;;;6237987;23;20151;-73
2023/04/19 03:02:38;;;;;;;16.77;13.13;;;;;;;;;;6229372;23;20191;-73
2023/04/19 03:05:44;;;;;;;17.93;13.17;;;;;;;;;;6238193;23;20156;-73
2023/04/19 03:08:48;;;;;;;20.33;13.77;;;;;;;;;;6256591;23;20151;-72
2023/04/19 03:11:54;;;;;;;18.63;12.97;;;;;;;;;;6232653;23;20505;-72
2023/04/19 03:14:59;;;;;;;19.43;13.60;;;;;;;;;;6256694;23;20155;-73
2023/04/19 03:18:03;;;;;;;22.63;13.93;;;;;;;;;;6237780;23;20151;-73
2023/04/19 03:21:08;;;;;;;20.93;13.57;;;;;;;;;;6235352;22;20652;-73
2023/04/19 03:24:30;;;;;;;18.53;13.70;;;;;;;;;;6237679;23;20156;-73
2023/04/19 03:27:39;;;;;;;22.47;15.03;;;;;;;;;;6236329;22;20206;-83
2023/04/19 03:30:47;;;;;;;20.93;13.50;;;;;;;;;;6253041;22;20183;-83
2023/04/19 03:33:52;;;;;;;19.00;13.67;;;;;;;;;;6252245;22;20151;-83
2023/04/19 03:36:58;;;;;;;22.20;14.43;;;;;;;;;;6251744;22;20456;-83
2023/04/19 03:40:03;;;;;;;20.33;14.27;;;;;;;;;;6224353;22;20162;-84
2023/04/19 03:43:11;;;;;;;21.03;14.60;;;;;;;;;;6251958;22;20155;-85
2023/04/19 03:46:16;;;;;;;24.00;14.30;;;;;;;;;;6235024;22;20151;-84
2023/04/19 03:49:20;;;;;;;19.50;13.87;;;;;;;;;;6234338;22;20182;-83
2023/04/19 03:52:30;;;;;;;21.63;14.30;;;;;;;;;;6242945;22;20171;-85
2023/04/19 03:55:34;;;;;;;19.83;14.27;;;;;;;;;;6239612;22;20151;-84
2023/04/19 03:58:40;;;;;;;21.10;13.60;;;;;;;;;;6229691;22;20191;-84
2023/04/19 04:01:45;;;;;;;25.17;15.33;;;;;;;;;;6227102;22;20166;-84
2023/04/19 04:04:54;;;;;;;22.47;16.20;;;;;;;;;;6236875;22;20465;-83
2023/04/19 04:08:00;;;;;;;21.27;14.27;;;;;;;;;;6249634;22;20186;-83
2023/04/19 04:11:05;;;;;;;22.90;15.47;;;;;;;;;;6271015;22;20175;-83
2023/04/19 04:14:10;;;;;;;22.20;14.97;;;;;;;;;;6270839;22;20155;-84
2023/04/19 04:17:15;;;;;;;19.10;14.10;;;;;;;;;;6253028;22;20191;-83
2023/04/19 04:20:20;;;;;;;23.33;15.00;;;;;;;;;;6259411;22;20171;-83
2023/04/19 04:23:24;;;;;;;21.10;14.00;;;;;;;;;;6241948;22;20171;-84
2023/04/19 04:26:30;;;;;;;21.30;15.20;;;;;;;;;;6252245;22;20155;-85
2023/04/19 04:29:49;;;;;;;19.90;13.87;;;;;;;;;;6252526;22;20175;-83
2023/04/19 04:32:56;;;;;;;20.87;14.50;;;;;;;;;;6252381;22;20155;-83
2023/04/19 04:36:01;;;;;;;20.70;14.30;;;;;;;;;;6251632;22;20583;-83
2023/04/19 04:39:10;;;;;;;34.40;23.87;;;;;;;;;;6242762;22;20186;-83
2023/04/19 04:42:15;;;;;;;23.73;17.67;;;;;;;;;;6259167;22;20171;-83
2023/04/19 04:45:19;;;;;;;19.93;14.67;;;;;;;;;;6269544;22;20449;-83
2023/04/19 04:48:24;;;;;;;21.27;14.83;;;;;;;;;;6245425;22;20187;-83
2023/04/19 04:51:28;;;;;;;22.10;16.60;;;;;;;;;;6251178;22;20178;-82
2023/04/19 04:54:34;;;;;;;22.00;14.57;;;;;;;;;;6233914;22;20155;-84
2023/04/19 04:57:38;;;;;;;18.40;13.30;;;;;;;;;;6231157;22;20659;-82
2023/04/19 05:00:45;;;;;;;19.00;13.70;;;;;;;;;;6226712;22;20473;-81
2023/04/19 05:03:50;;;;;;;25.97;16.50;;;;;;;;;;6242496;22;20170;-83
2023/04/19 05:06:56;;;;;;;22.07;14.60;;;;;;;;;;6252558;22;20457;-83
2023/04/19 05:10:05;;;;;;;19.73;13.73;;;;;;;;;;6242609;22;20190;-84
2023/04/19 05:13:19;;;;;;;19.30;13.50;;;;;;;;;;6237623;22;20154;-84
2023/04/19 05:16:25;;;;;;;18.03;12.87;;;;;;;;;;6235100;22;20155;-83
2023/04/19 05:19:30;;;;;;;18.33;13.70;;;;;;;;;;6252547;22;20154;-83
2023/04/19 05:22:39;;;;;;;19.50;14.10;;;;;;;;;;6242977;22;20167;-83
2023/04/19 05:25:46;;;;;;;18.80;13.80;;;;;;;;;;6235541;22;20155;-83
2023/04/19 05:28:50;;;;;;;23.67;13.90;;;;;;;;;;6243711;22;20198;-84
2023/04/19 05:32:05;;;;;;;19.33;13.73;;;;;;;;;;6252320;22;20155;-83
2023/04/19 05:35:13;;;;;;;21.10;13.00;;;;;;;;;;6235878;22;20155;-84
2023/04/19 05:38:18;;;;;;;19.07;13.70;;;;;;;;;;6259958;22;20233;-83
2023/04/19 05:41:22;;;;;;;18.00;12.70;;;;;;;;;;6252713;22;20151;-84
2023/04/19 05:44:26;;;;;;;20.43;13.33;;;;;;;;;;6235705;22;20147;-83
2023/04/19 05:47:31;;;;;;;25.93;14.10;;;;;;;;;;6269477;22;20492;-83
2023/04/19 05:51:02;;;;;;;18.37;12.90;;;;;;;;;;6258996;22;20198;-83
2023/04/19 05:54:16;;;;;;;21.67;12.87;;;;;;;;;;6237465;22;20155;-83
2023/04/19 05:57:23;;;;;;;17.20;13.10;;;;;;;;;;6234073;22;20522;-83
2023/04/19 06:00:27;;;;;;;21.97;13.53;;;;;;;;;;6270188;22;20600;-84
2023/04/19 06:03:38;;;;;;;20.10;13.33;;;;;;;;;;6254002;22;20595;-83
2023/04/19 06:06:43;;;;;;;19.47;13.37;;;;;;;;;;6235278;22;20155;-85
2023/04/19 06:09:50;;;;;;;21.00;14.03;;;;;;;;;;6235688;22;20186;-85
2023/04/19 06:12:54;;;;;;;23.27;13.30;;;;;;;;;;6235089;22;20155;-85
2023/04/19 06:15:58;;;;;;;20.70;13.83;;;;;;;;;;6252095;22;20155;-85
2023/04/19 06:19:02;;;;;;;19.93;14.50;;;;;;;;;;6225876;22;20505;-84
2023/04/19 06:22:07;;;;;;;18.40;13.73;;;;;;;;;;6235130;22;20151;-85
2023/04/19 06:25:11;;;;;;;21.30;13.93;;;;;;;;;;6259210;22;20472;-84
2023/04/19 06:28:15;;;;;;;19.70;13.80;;;;;;;;;;6224369;22;20508;-84
2023/04/19 06:31:19;;;;;;;19.10;13.97;;;;;;;;;;6259389;22;20194;-85
2023/04/19 06:34:23;;;;;;;20.43;13.17;;;;;;;;;;6243460;22;20615;-82
2023/04/19 06:37:28;;;;;;;16.70;11.83;;;;;;;;;;6261933;22;20194;-85
2023/04/19 06:40:33;;;;;;;18.33;13.73;;;;;;;;;;6237612;22;20153;-84
2023/04/19 06:43:39;;;;;;;16.77;12.17;;;;;;;;;;6271185;22;20161;-84
2023/04/19 06:46:43;;;;;;;19.83;13.00;;;;;;;;;;6253831;22;20157;-85
2023/04/19 06:49:47;;;;;;;17.97;11.77;;;;;;;;;;6253260;22;20157;-84
2023/04/19 06:52:52;;;;;;;19.17;12.97;;;;;;;;;;6253573;22;20157;-85
2023/04/19 06:56:01;;;;;;;20.90;13.40;;;;;;;;;;6254351;22;20614;-85
2023/04/19 06:59:05;;;;;;;27.33;13.87;;;;;;;;;;6226070;22;20197;-85
2023/04/19 07:02:09;;;;;;;18.80;12.80;;;;;;;;;;6272097;22;20487;-85
2023/04/19 07:05:13;;;;;;;20.07;13.67;;;;;;;;;;6269752;22;20162;-85
2023/04/19 07:08:17;;;;;;;83.53;15.27;;;;;;;;;;6246207;22;20209;-83
2023/04/19 07:11:21;;;;;;;17.50;12.70;;;;;;;;;;6235979;22;20185;-84
2023/04/19 07:14:25;;;;;;;16.27;12.37;;;;;;;;;;6252988;22;20228;-83
2023/04/19 07:17:29;;;;;;;22.47;12.90;;;;;;;;;;6267903;22;20196;-83
2023/04/19 07:20:33;;;;;;;16.97;13.60;;;;;;;;;;6270465;22;20153;-82
2023/04/19 07:23:37;;;;;;;19.87;11.87;;;;;;;;;;6252309;22;20487;-82
2023/04/19 07:26:42;;;;;;;17.07;12.50;;;;;;;;;;6270181;22;20161;-82
2023/04/19 07:29:46;;;;;;;15.67;11.60;;;;;;;;;;6252623;22;20158;-83
2023/04/19 07:32:52;;;;;;;17.07;12.47;;;;;;;;;;6251973;22;20178;-83
2023/04/19 07:35:56;;;;;;;18.17;12.27;;;;;;;;;;6243787;22;20177;-83
2023/04/19 07:39:00;;;;;;;20.53;13.53;;;;;;;;;;6227962;22;20196;-82
2023/04/19 07:42:05;;;;;;;19.23;13.43;;;;;;;;;;6244861;22;20630;-82
2023/04/19 07:45:09;;;;;;;19.67;13.63;;;;;;;;;;6237519;22;20161;-83
2023/04/19 07:48:13;;;;;;;18.60;13.80;;;;;;;;;;6265152;22;20196;-83
2023/04/19 07:51:22;;;;;;;22.00;12.27;;;;;;;;;;6234377;22;20654;-85
2023/04/19 07:54:26;;;;;;;16.63;11.67;;;;;;;;;;6224768;22;20504;-85
2023/04/19 07:57:30;;;;;;;18.93;12.77;;;;;;;;;;6241974;22;20192;-85
2023/04/19 08:00:36;;;;;;;20.20;13.50;;;;;;;;;;6252488;22;20609;-83
2023/04/19 08:03:41;;;;;;;16.30;12.53;;;;;;;;;;6269250;22;20163;-83
2023/04/19 08:06:45;;;;;;;16.73;12.27;;;;;;;;;;6235366;22;20479;-81
2023/04/19 08:09:49;;;;;;;16.57;11.97;;;;;;;;;;6235712;22;20613;-81
2023/04/19 08:12:53;;;;;;;24.27;13.40;;;;;;;;;;6270392;22;20610;-81
2023/04/19 08:15:57;;;;;;;19.03;13.50;;;;;;;;;;6269845;22;20161;-81
2023/04/19 08:19:02;;;;;;;18.10;12.77;;;;;;;;;;6226101;22;20212;-81
2023/04/19 08:22:06;;;;;;;20.70;13.93;;;;;;;;;;6235401;22;20153;-81
2023/04/19 08:25:10;;;;;;;19.53;13.67;;;;;;;;;;6270108;22;20161;-81
2023/04/19 08:28:14;;;;;;;19.93;13.20;;;;;;;;;;6281401;22;20532;-83
2023/04/19 08:31:19;;;;;;;23.37;13.33;;;;;;;;;;6251026;22;20211;-85
2023/04/19 08:34:24;;;;;;;17.13;12.40;;;;;;;;;;6253069;22;20158;-84
2023/04/19 08:37:28;;;;;;;17.60;13.70;;;;;;;;;;6233345;22;20213;-83
2023/04/19 08:40:33;;;;;;;16.83;12.20;;;;;;;;;;6242618;22;20499;-83
2023/04/19 08:43:37;;;;;;;26.97;13.73;;;;;;;;;;6260770;22;20177;-83
2023/04/19 08:46:43;;;;;;;15.97;12.23;;;;;;;;;;6253657;22;20487;-83
2023/04/19 08:49:47;;;;;;;17.87;12.47;;;;;;;;;;6254028;22;20488;-81
2023/04/19 08:52:51;;;;;;;14.77;11.60;;;;;;;;;;6236702;22;20161;-81
2023/04/19 08:55:59;;;;;;;15.03;11.63;;;;;;;;;;6272477;22;20475;-81
2023/04/19 08:59:03;;;;;;;17.97;12.77;;;;;;;;;;6282375;22;20197;-81
2023/04/19 09:02:07;;;;;;;17.70;13.50;;;;;;;;;;6254780;22;20153;-82
2023/04/19 09:05:13;;;;;;;21.20;14.23;;;;;;;;;;6255156;22;20162;-81
2023/04/19 09:08:29;;;;;;;16.43;12.60;;;;;;;;;;6231150;22;20665;-81
2023/04/19 09:11:38;;;;;;;18.10;13.27;;;;;;;;;;6237490;22;20654;-81
2023/04/19 09:14:46;;;;;;;17.63;13.00;;;;;;;;;;6236916;22;20603;-83
2023/04/19 09:18:04;;;;;;;16.30;12.60;;;;;;;;;;6233687;22;20196;-83
2023/04/19 09:21:08;;;;;;;20.33;14.40;;;;;;;;;;6254381;22;20157;-81
2023/04/19 09:24:12;;;;;;;27.20;14.60;;;;;;;;;;6256872;22;20478;-80
2023/04/19 09:27:26;;;;;;;17.73;13.23;;;;;;;;;;6253904;22;20193;-81
2023/04/19 09:30:30;;;;;;;16.60;12.67;;;;;;;;;;6261354;22;20163;-82
2023/04/19 09:33:38;;;;;;;17.37;13.17;;;;;;;;;;6258049;22;20164;-81
2023/04/19 09:36:43;;;;;;;20.23;13.47;;;;;;;;;;6266438;22;20173;-81
2023/04/19 09:39:47;;;;;;;17.90;13.23;;;;;;;;;;6249194;22;20177;-81
2023/04/19 09:42:51;;;;;;;17.87;12.70;;;;;;;;;;6266454;22;20169;-81
2023/04/19 09:45:56;;;;;;;20.50;13.57;;;;;;;;;;6236948;22;20157;-81
2023/04/19 09:49:12;;;;;;;18.93;13.57;;;;;;;;;;6229998;22;20194;-81
2023/04/19 09:52:16;;;;;;;18.63;13.33;;;;;;;;;;6254748;22;20202;-82
2023/04/19 09:55:21;;;;;;;20.10;13.60;;;;;;;;;;6254517;22;20158;-81
2023/04/19 09:58:25;;;;;;;18.83;13.50;;;;;;;;;;6265295;22;20193;-81
2023/04/19 10:01:34;;;;;;;18.00;13.27;;;;;;;;;;6243697;22;20170;-80
2023/04/19 10:04:40;;;;;;;19.17;14.30;;;;;;;;;;6279589;22;20177;-81
2023/04/19 10:07:44;;;;;;;18.47;13.60;;;;;;;;;;6225519;22;20193;-81
2023/04/19 10:10:53;;;;;;;19.23;13.47;;;;;;;;;;6243631;22;20181;-81
2023/04/19 10:13:59;;;;;;;19.70;12.80;;;;;;;;;;6227195;22;20649;-81
2023/04/19 10:17:03;;;;;;;18.13;13.20;;;;;;;;;;6236006;22;20161;-81
2023/04/19 10:20:12;;;;;;;19.17;13.10;;;;;;;;;;6236247;22;20177;-81
2023/04/19 10:23:16;;;;;;;18.33;13.07;;;;;;;;;;6254032;22;20149;-81
2023/04/19 10:26:21;;;;;;;17.60;12.60;;;;;;;;;;6243440;22;20507;-81
2023/04/19 10:29:57;;;;;;;19.30;13.20;;;;;;;;;;6261252;22;20177;-81
2023/04/19 10:33:02;;;;;;;20.63;12.50;;;;;;;;;;6270683;22;20190;-80
2023/04/19 10:36:13;;;;;;;19.00;14.13;;;;;;;;;;6255211;22;20157;-81
2023/04/19 10:39:40;;;;;;;17.43;12.90;;;;;;;;;;6245266;22;20678;-82
2023/04/19 10:43:09;;;;;;;21.53;14.33;;;;;;;;;;6235893;22;20611;-82
2023/04/19 10:46:36;;;;;;;20.77;13.97;;;;;;;;;;6228068;22;20229;-84
2023/04/19 10:49:45;;;;;;;22.27;16.20;;;;;;;;;;6255153;22;20166;-84
2023/04/19 10:52:49;;;;;;;25.37;17.33;;;;;;;;;;6236646;22;20181;-84
2023/04/19 10:55:53;;;;;;;23.30;14.73;;;;;;;;;;6244553;22;20189;-84
2023/04/19 10:59:07;;;;;;;19.03;13.50;;;;;;;;;;6262434;22;20177;-84
2023/04/19 11:02:26;;;;;;;24.27;16.87;;;;;;;;;;6237292;22;20157;-84
2023/04/19 11:06:09;;;;;;;19.43;13.67;;;;;;;;;;6251067;22;20196;-84
2023/04/19 11:09:24;;;;;;;26.97;15.33;;;;;;;;;;6257621;22;20177;-84
2023/04/19 11:12:28;;;;;;;21.07;13.37;;;;;;;;;;6244999;22;20198;-84
2023/04/19 11:15:33;;;;;;;17.70;12.83;;;;;;;;;;6267948;22;20197;-84
2023/04/19 11:18:37;;;;;;;15.80;12.10;;;;;;;;;;6271707;22;20617;-84
2023/04/19 11:21:41;;;;;;;17.50;13.53;;;;;;;;;;6258202;22;20157;-84
2023/04/19 11:24:48;;;;;;;20.37;13.63;;;;;;;;;;6256748;22;20161;-84
2023/04/19 11:27:54;;;;;;;18.20;13.30;;;;;;;;;;6235387;22;20157;-85
2023/04/19 11:31:00;;;;;;;16.40;12.63;;;;;;;;;;6253719;22;20156;-85
2023/04/19 11:34:08;;;;;;;16.83;11.90;;;;;;;;;;6237756;22;20161;-85
2023/04/19 11:37:12;;;;;;;17.47;12.50;;;;;;;;;;6252989;22;20157;-85
2023/04/19 11:40:20;;;;;;;22.37;16.43;;;;;;;;;;6219286;22;20161;-84
2023/04/19 11:43:34;;;;;;;16.70;11.17;;;;;;;;;;6235682;22;20157;-85
2023/04/19 11:46:40;;;;;;;11.70;9.33;;;;;;;;;;6243759;22;20201;-85
2023/04/19 11:49:46;;;;;;;13.13;8.77;;;;;;;;;;6270599;22;20150;-84
2023/04/19 11:52:52;;;;;;;11.27;8.27;;;;;;;;;;6236163;22;20619;-85
2023/04/19 11:56:04;;;;;;;8.80;6.97;;;;;;;;;;6281148;22;20190;-85
2023/04/19 11:59:09;;;;;;;9.63;7.70;;;;;;;;;;6225070;22;20167;-85
2023/04/19 12:02:13;;;;;;;10.80;8.27;;;;;;;;;;6258718;22;20472;-85
2023/04/19 12:05:17;;;;;;;9.40;7.73;;;;;;;;;;6248130;22;20186;-85
2023/04/19 12:08:35;;;;;;;12.80;8.07;;;;;;;;;;6273037;22;20150;-84
2023/04/19 12:11:45;;;;;;;11.27;7.70;;;;;;;;;;6256128;22;20178;-85
2023/04/19 12:14:52;;;;;;;7.80;6.10;;;;;;;;;;6255683;22;20190;-84
2023/04/19 12:17:57;;;;;;;9.23;6.87;;;;;;;;;;6258107;22;20587;-84
2023/04/19 12:21:02;;;;;;;10.93;7.03;;;;;;;;;;6228795;22;20170;-85
2023/04/19 12:24:07;;;;;;;13.70;7.57;;;;;;;;;;6263475;22;20163;-84
2023/04/19 12:27:11;;;;;;;9.03;7.03;;;;;;;;;;6273916;22;20159;-85
2023/04/19 12:30:15;;;;;;;7.13;5.80;;;;;;;;;;6256439;22;20151;-84
2023/04/19 12:33:20;;;;;;;7.93;6.57;;;;;;;;;;6255698;22;20619;-84
2023/04/19 12:36:24;;;;;;;8.97;6.50;;;;;;;;;;6265201;22;20519;-84
2023/04/19 12:39:29;;;;;;;11.40;7.60;;;;;;;;;;6239043;22;20155;-84
2023/04/19 12:42:33;;;;;;;9.67;7.80;;;;;;;;;;6255962;22;20147;-86
2023/04/19 12:45:38;;;;;;;11.60;8.90;;;;;;;;;;6252011;22;20198;-84
2023/04/19 12:48:42;;;;;;;14.13;9.03;;;;;;;;;;6256167;22;20155;-85
2023/04/19 12:51:46;;;;;;;14.40;10.53;;;;;;;;;;6239614;22;20596;-84
2023/04/19 12:54:50;;;;;;;11.87;9.43;;;;;;;;;;6291042;22;20191;-86
2023/04/19 12:57:54;;;;;;;13.20;9.83;;;;;;;;;;6257456;22;20460;-86
2023/04/19 13:01:19;;;;;;;12.93;9.03;;;;;;;;;;6228948;22;20476;-86
2023/04/19 13:04:24;;;;;;;13.77;9.90;;;;;;;;;;6256218;22;20147;-86
2023/04/19 13:07:29;;;;;;;13.87;10.67;;;;;;;;;;6256220;22;20151;-86
2023/04/19 13:10:32;;;;;;;15.67;11.30;;;;;;;;;;6246703;22;20170;-86
2023/04/19 13:13:36;;;;;;;18.37;12.00;;;;;;;;;;6245636;22;20194;-86
2023/04/19 13:16:41;;;;;;;17.93;13.20;;;;;;;;;;6246221;22;20186;-86
2023/04/19 13:19:46;;;;;;;16.73;12.13;;;;;;;;;;6236631;22;20154;-86
2023/04/19 13:22:50;;;;;;;15.03;10.60;;;;;;;;;;6253902;22;20143;-86
2023/04/19 13:25:54;;;;;;;14.00;10.33;;;;;;;;;;6232117;22;20655;-86
2023/04/19 13:28:58;;;;;;;12.97;9.93;;;;;;;;;;6271539;22;20147;-87
2023/04/19 13:32:06;;;;;;;12.17;9.53;;;;;;;;;;6253968;22;20182;-86
2023/04/19 13:35:11;;;;;;;13.60;9.40;;;;;;;;;;6251016;22;20191;-86
2023/04/19 13:38:16;;;;;;;14.20;8.37;;;;;;;;;;6261685;22;20170;-86
2023/04/19 13:41:23;;;;;;;13.30;9.07;;;;;;;;;;6227082;22;20205;-86
2023/04/19 13:44:28;;;;;;;12.73;9.30;;;;;;;;;;6233351;22;20171;-87
2023/04/19 13:47:32;;;;;;;12.37;9.30;;;;;;;;;;6235168;22;20155;-86
2023/04/19 13:50:37;;;;;;;10.50;7.77;;;;;;;;;;6235266;22;20151;-86
2023/04/19 13:53:45;;;;;;;7.47;5.60;;;;;;;;;;6253285;22;20497;-86
2023/04/19 13:56:50;;;;;;;8.13;6.13;;;;;;;;;;6225445;22;20190;-86
2023/04/19 13:59:54;;;;;;;7.10;5.80;;;;;;;;;;6252800;22;20159;-86
2023/04/19 14:02:58;;;;;;;9.60;6.80;;;;;;;;;;6243289;22;20167;-86
2023/04/19 14:06:02;;;;;;;8.67;6.43;;;;;;;;;;6243049;22;20186;-86
2023/04/19 14:09:06;;;;;;;10.37;7.00;;;;;;;;;;6259898;22;20266;-86
2023/04/19 14:12:10;;;;;;;10.10;6.60;;;;;;;;;;6242741;22;20171;-87
2023/04/19 14:15:14;;;;;;;9.47;6.83;;;;;;;;;;6242070;22;20190;-87
2023/04/19 14:18:18;;;;;;;7.87;5.73;;;;;;;;;;6252210;22;20155;-87
2023/04/19 14:21:22;;;;;;;7.73;6.13;;;;;;;;;;6252331;22;20587;-86
2023/04/19 14:24:30;;;;;;;7.73;5.67;;;;;;;;;;6252090;22;20147;-87
2023/04/19 14:27:34;;;;;;;7.97;6.00;;;;;;;;;;6234635;22;20453;-86
2023/04/19 14:31:01;;;;;;;7.70;5.70;;;;;;;;;;6258866;22;20170;-87
2023/04/19 14:38:56;;;;;;;11.30;6.43;;;;;;;;;;6269754;22;20159;-87
2023/04/19 14:42:02;;;;;;;8.93;5.83;;;;;;;;;;6235028;22;20591;-86
2023/04/19 14:45:07;;;;;;;6.87;5.83;;;;;;;;;;6250483;22;20194;-86
2023/04/19 14:48:11;;;;;;;6.43;5.47;;;;;;;;;;6234413;22;20155;-86
2023/04/19 14:51:15;;;;;;;6.53;5.33;;;;;;;;;;6269518;22;20151;-86
2023/04/19 14:54:19;;;;;;;9.73;5.20;;;;;;;;;;6234745;22;20631;-87
2023/04/19 14:57:25;;;;;;;8.60;6.60;;;;;;;;;;6269144;22;20155;-86
2023/04/19 15:00:29;;;;;;;7.33;6.00;;;;;;;;;;6252445;22;20155;-86
2023/04/19 15:03:33;;;;;;;6.90;5.60;;;;;;;;;;6252010;22;20154;-86
2023/04/19 15:06:38;;;;;;;8.53;5.90;;;;;;;;;;6225257;22;20187;-86
2023/04/19 15:09:42;;;;;;;6.33;5.60;;;;;;;;;;6252464;22;20151;-86
2023/04/19 15:12:46;;;;;;;8.93;5.60;;;;;;;;;;6234773;22;20183;-86
2023/04/19 15:15:50;;;;;;;7.53;5.47;;;;;;;;;;6246031;22;20186;-86
2023/04/19 15:18:54;;;;;;;5.60;4.93;;;;;;;;;;6235015;22;20155;-86
2023/04/19 15:21:58;;;;;;;6.50;5.30;;;;;;;;;;6258795;22;20171;-86
2023/04/19 15:25:03;;;;;;;6.27;5.27;;;;;;;;;;6259355;22;20183;-85
2023/04/19 15:28:07;;;;;;;7.37;5.60;;;;;;;;;;6269469;22;20155;-86
2023/04/19 15:31:11;;;;;;;8.83;5.93;;;;;;;;;;6251757;22;20151;-86
2023/04/19 15:34:16;;;;;;;8.03;5.93;;;;;;;;;;6269251;22;20183;-86
2023/04/19 15:37:20;;;;;;;7.63;5.83;;;;;;;;;;6253514;22;20155;-86
2023/04/19 15:40:24;;;;;;;7.37;5.33;;;;;;;;;;6234639;22;20155;-86
2023/04/19 15:43:29;;;;;;;7.33;5.53;;;;;;;;;;6241452;22;20167;-85
2023/04/19 15:46:33;;;;;;;7.77;6.10;;;;;;;;;;6277389;22;20198;-86
2023/04/19 15:49:39;;;;;;;8.30;5.83;;;;;;;;;;6251556;22;20532;-86
2023/04/19 15:52:43;;;;;;;7.57;5.97;;;;;;;;;;6251309;22;20151;-86
2023/04/19 15:55:47;;;;;;;9.37;5.87;;;;;;;;;;6245835;22;20186;-86
2023/04/19 15:58:52;;;;;;;8.23;5.53;;;;;;;;;;6251873;22;20155;-86
2023/04/19 16:01:56;;;;;;;6.93;5.53;;;;;;;;;;6251527;22;20592;-86
2023/04/19 16:05:00;;;;;;;7.57;5.47;;;;;;;;;;6266861;22;20651;-86
2023/04/19 16:08:08;;;;;;;7.27;5.50;;;;;;;;;;6251428;22;20155;-86
2023/04/19 16:11:12;;;;;;;8.00;5.83;;;;;;;;;;6250793;22;20210;-86
2023/04/19 16:14:16;;;;;;;6.60;5.37;;;;;;;;;;6251638;22;20179;-86
2023/04/19 16:17:20;;;;;;;6.97;5.67;;;;;;;;;;6286866;22;20151;-86
2023/04/19 16:20:24;;;;;;;6.70;5.37;;;;;;;;;;6251289;22;20158;-86
2023/04/19 16:23:28;;;;;;;6.27;5.50;;;;;;;;;;6251034;22;20584;-86
2023/04/19 16:26:32;;;;;;;7.80;5.27;;;;;;;;;;6259813;22;20190;-87
2023/04/19 16:29:37;;;;;;;6.57;5.30;;;;;;;;;;6250976;22;20147;-86
2023/04/19 16:32:42;;;;;;;7.40;5.87;;;;;;;;;;6251128;22;20151;-86
2023/04/19 16:35:46;;;;;;;6.70;5.33;;;;;;;;;;6245500;22;20190;-86
2023/04/19 16:38:50;;;;;;;12.17;8.70;;;;;;;;;;6234203;22;20157;-86
2023/04/19 16:41:54;;;;;;;6.73;5.33;;;;;;;;;;6250979;22;20155;-86
2023/04/19 16:44:58;;;;;;;6.87;5.47;;;;;;;;;;6246659;22;20199;-87
2023/04/19 16:48:03;;;;;;;5.67;4.80;;;;;;;;;;6233642;22;20155;-87
2023/04/19 16:51:06;;;;;;;7.37;5.57;;;;;;;;;;6250870;22;20453;-86
2023/04/19 16:54:10;;;;;;;6.67;5.13;;;;;;;;;;6252091;22;20182;-87
2023/04/19 16:57:15;;;;;;;6.63;5.37;;;;;;;;;;6270670;22;20181;-86
2023/04/19 17:00:19;;;;;;;7.00;5.00;;;;;;;;;;6235823;22;20151;-86
2023/04/19 17:03:24;;;;;;;6.57;4.97;;;;;;;;;;6253337;22;20151;-87
2023/04/19 17:06:28;;;;;;;5.60;4.70;;;;;;;;;;6261646;22;20194;-87
2023/04/19 17:09:32;;;;;;;6.20;5.17;;;;;;;;;;6235639;22;20154;-86
2023/04/19 17:12:36;;;;;;;5.93;5.20;;;;;;;;;;6253130;22;20151;-87
2023/04/19 17:15:41;;;;;;;6.93;5.43;;;;;;;;;;6230139;22;20191;-86
2023/04/19 17:18:45;;;;;;;7.57;5.03;;;;;;;;;;6270503;22;20495;-86
2023/04/19 17:21:49;;;;;;;7.80;5.33;;;;;;;;;;6235951;22;20155;-87
2023/04/19 17:24:55;;;;;;;6.90;5.80;;;;;;;;;;6233934;22;20182;-86
2023/04/19 17:28:03;;;;;;;11.17;6.30;;;;;;;;;;6236001;22;20154;-86
2023/04/19 17:31:07;;;;;;;8.10;6.10;;;;;;;;;;6253402;22;20151;-89
2023/04/19 17:34:12;;;;;;;7.03;6.10;;;;;;;;;;6269921;22;20183;-87
2023/04/19 17:37:16;;;;;;;7.27;6.27;;;;;;;;;;6270499;22;20154;-87
2023/04/19 17:40:20;;;;;;;7.13;5.13;;;;;;;;;;6252806;22;20155;-87
2023/04/19 17:43:24;;;;;;;7.57;5.43;;;;;;;;;;6242710;22;20171;-87
2023/04/19 17:46:28;;;;;;;6.07;5.10;;;;;;;;;;6243787;22;20194;-87
2023/04/19 17:49:32;;;;;;;8.37;5.63;;;;;;;;;;6270878;22;20151;-86
2023/04/19 17:52:37;;;;;;;6.67;5.67;;;;;;;;;;6271446;22;20151;-86
2023/04/19 17:55:41;;;;;;;7.77;6.00;;;;;;;;;;6265870;22;20183;-86
2023/04/19 17:58:45;;;;;;;7.67;5.90;;;;;;;;;;6244023;22;20167;-86
2023/04/19 18:01:50;;;;;;;8.70;6.80;;;;;;;;;;6253136;22;20155;-86
2023/04/19 18:04:54;;;;;;;8.33;6.93;;;;;;;;;;6251039;22;20186;-86
2023/04/19 18:07:58;;;;;;;10.27;8.83;;;;;;;;;;6242844;22;20170;-86
2023/04/19 18:11:02;;;;;;;11.33;9.30;;;;;;;;;;6236595;22;20151;-85
2023/04/19 18:14:06;;;;;;;10.13;7.40;;;;;;;;;;6236061;22;20182;-86